Terminal Aerodrome Forecast
Issued by NWS New Orleans/Baton Rouge, LA

Home | Current Version | Previous Version | Text Only | Print | Product List | Glossary On
Versions: 1 2 3 4 5 6 7 8 9 10 11 12 13 14 15
710
FTUS44 KLIX 251726
TAFBTR
TAF
KBTR 251726Z 2518/2618 21006KT P6SM FEW250
     FM260200 19006KT P6SM SKC
     FM261400 18011KT P6SM FEW250=

USA.gov is the U.S. government's official web portal to all federal, state and local government web resources and services.